Time;durP1;ratioP1;P1;durP2;ratioP2;P2;SDS_P1;SDS_P2;PMS_P1;PMS_P2;Temp;Humidity;BMP_temperature;BMP_pressure;BME280_temperature;BME280_humidity;BME280_pressure;Samples;Min_cycle;Max_cycle;Signal;HPM_P1;HPM_P2
2022/01/08 00:00:14;;;;;;;2.33;1.17;;;;;;;16.93;49.20;101016.38;4847617;29;20094;-78
2022/01/08 00:02:40;;;;;;;3.28;1.45;;;;;;;16.93;48.98;101023.31;4832300;29;20038;-78
2022/01/08 00:05:05;;;;;;;3.10;1.35;;;;;;;16.93;49.23;101025.91;4847254;29;20042;-79
2022/01/08 00:07:31;;;;;;;3.30;1.40;;;;;;;16.93;48.99;101031.09;4864020;29;20064;-78
2022/01/08 00:09:56;;;;;;;2.55;1.20;;;;;;;16.93;49.05;101023.31;4846709;29;20405;-78
2022/01/08 00:12:23;;;;;;;3.60;1.27;;;;;;;16.92;48.92;101026.75;4847731;29;20042;-78
2022/01/08 00:14:48;;;;;;;4.18;1.30;;;;;;;16.91;48.92;101028.50;4847522;29;20042;-78
2022/01/08 00:17:13;;;;;;;2.58;1.20;;;;;;;16.89;48.93;101025.03;4863974;29;20043;-79
2022/01/08 00:19:39;;;;;;;3.83;1.52;;;;;;;16.91;49.13;101044.09;4863765;29;20045;-78
2022/01/08 00:22:04;;;;;;;3.65;1.40;;;;;;;16.90;49.07;101044.97;4864118;29;20069;-79
2022/01/08 00:24:30;;;;;;;3.40;1.25;;;;;;;16.90;48.92;101050.19;4832648;29;20041;-79
2022/01/08 00:26:55;;;;;;;3.50;1.23;;;;;;;16.91;48.78;101046.69;4863724;29;20400;-78
2022/01/08 00:29:20;;;;;;;4.28;1.20;;;;;;;16.90;48.83;101047.59;4863646;29;20065;-79
2022/01/08 00:31:46;;;;;;;3.38;1.25;;;;;;;16.91;48.88;101051.03;4847098;29;20094;-78
2022/01/08 00:34:11;;;;;;;2.50;1.30;;;;;;;16.89;48.82;101043.22;4863571;29;20046;-78
2022/01/08 00:36:37;;;;;;;3.08;1.27;;;;;;;16.91;48.70;101053.63;4847441;29;20033;-78
2022/01/08 00:39:03;;;;;;;3.13;1.10;;;;;;;16.90;48.75;101047.59;4863689;29;20037;-78
2022/01/08 00:41:29;;;;;;;2.67;1.17;;;;;;;16.89;48.57;101051.03;4846548;29;20044;-78
2022/01/08 00:43:54;;;;;;;3.00;1.50;;;;;;;16.89;48.50;101047.56;4846616;29;20200;-78
2022/01/08 00:46:20;;;;;;;3.17;1.30;;;;;;;16.88;48.75;101040.66;4863054;29;20041;-78
2022/01/08 00:48:45;;;;;;;4.45;1.30;;;;;;;16.88;48.73;101035.47;4831525;29;20060;-79
2022/01/08 00:51:11;;;;;;;3.20;1.30;;;;;;;16.88;48.75;101045.88;4816580;29;20397;-78
2022/01/08 00:53:37;;;;;;;2.80;1.30;;;;;;;16.88;48.81;101045.88;4831773;29;20041;-78
2022/01/08 00:56:04;;;;;;;2.47;0.98;;;;;;;16.86;49.01;101044.13;4863091;29;20093;-78
2022/01/08 00:58:29;;;;;;;2.75;1.25;;;;;;;16.86;48.58;101040.66;4863268;29;20041;-80
2022/01/08 01:00:55;;;;;;;2.20;1.20;;;;;;;16.86;48.79;101040.66;4869677;29;20132;-80
2022/01/08 01:03:20;;;;;;;3.13;1.05;;;;;;;16.86;48.67;101035.47;4839398;29;20045;-79
2022/01/08 01:05:45;;;;;;;4.22;1.10;;;;;;;16.86;48.68;101051.91;4836229;29;20047;-78
2022/01/08 01:08:11;;;;;;;2.20;0.90;;;;;;;16.85;48.52;101039.81;4847891;29;20488;-80
2022/01/08 01:10:36;;;;;;;3.13;1.30;;;;;;;16.85;48.49;101037.19;4871355;29;20081;-80
2022/01/08 01:13:02;;;;;;;2.08;1.08;;;;;;;16.84;48.71;101039.78;4870890;29;20037;-78
2022/01/08 01:15:28;;;;;;;3.80;1.20;;;;;;;16.84;48.80;101040.66;4864387;29;20569;-78
2022/01/08 01:17:53;;;;;;;2.53;1.10;;;;;;;16.85;48.80;101051.91;4846419;29;20033;-78
2022/01/08 01:20:20;;;;;;;2.60;1.02;;;;;;;16.85;48.50;101049.31;4830821;29;20053;-79
2022/01/08 01:25:17;;;;;;;3.00;1.10;;;;;;;16.83;48.75;101038.94;4862309;29;20149;-78
2022/01/08 01:27:57;;;;;;;2.25;0.95;;;;;;;16.84;48.60;101047.59;4863471;29;20041;-78
2022/01/08 01:41:38;;;;;;;2.22;1.15;;;;;;;16.82;48.25;101042.41;4863129;29;20105;-79
2022/01/08 01:49:17;;;;;;;2.30;0.90;;;;;;;16.83;48.40;101049.34;4862618;29;20071;-78
2022/01/08 01:51:43;;;;;;;2.42;1.10;;;;;;;16.81;48.48;101043.28;4845770;29;20042;-79
2022/01/08 01:54:08;;;;;;;4.57;1.10;;;;;;;16.81;48.47;101043.28;4845578;29;20052;-78
2022/01/08 01:56:34;;;;;;;2.20;1.00;;;;;;;16.80;48.24;101045.88;4845446;29;20041;-79
2022/01/08 01:58:59;;;;;;;2.30;1.00;;;;;;;16.81;48.69;101055.38;4845779;29;20105;-79
2022/01/08 02:01:25;;;;;;;2.30;0.98;;;;;;;16.80;48.64;101049.31;4862022;29;20068;-78
2022/01/08 02:03:50;;;;;;;3.10;1.17;;;;;;;16.81;48.24;101048.47;4861941;29;20429;-78
2022/01/08 02:06:16;;;;;;;3.75;1.40;;;;;;;16.81;48.48;101052.78;4861817;29;20485;-78
2022/01/08 02:08:42;;;;;;;2.65;1.00;;;;;;;16.81;48.47;101052.78;4845132;29;20484;-78
2022/01/08 02:11:08;;;;;;;2.40;1.02;;;;;;;16.80;48.54;101048.47;4861796;29;20052;-78
2022/01/08 02:13:34;;;;;;;2.25;1.00;;;;;;;16.79;48.44;101052.78;4863379;29;20405;-79
2022/01/08 02:16:01;;;;;;;2.83;1.30;;;;;;;16.79;48.47;101055.38;4846054;29;20056;-79
2022/01/08 02:18:28;;;;;;;2.45;1.10;;;;;;;16.79;48.39;101070.97;4861823;29;20041;-78
2022/01/08 02:20:58;;;;;;;2.17;0.98;;;;;;;16.79;48.48;101065.78;4845081;29;20124;-78
2022/01/08 02:23:24;;;;;;;2.00;0.90;;;;;;;16.79;48.38;101055.38;4861489;29;20041;-78
2022/01/08 02:25:50;;;;;;;2.58;0.93;;;;;;;16.78;48.73;101045.84;4844834;29;20059;-78
2022/01/08 02:28:16;;;;;;;2.55;1.00;;;;;;;16.78;48.27;101057.97;4845125;29;20110;-78
2022/01/08 02:30:42;;;;;;;3.63;1.00;;;;;;;16.79;48.64;101057.13;4844883;29;20090;-78
2022/01/08 02:33:08;;;;;;;1.67;0.82;;;;;;;16.78;48.19;101057.97;4860949;29;20049;-78
2022/01/08 02:35:34;;;;;;;3.25;0.90;;;;;;;16.77;48.25;101067.50;4844931;29;20041;-78
2022/01/08 02:37:59;;;;;;;2.63;1.10;;;;;;;16.76;48.66;101077.91;4844945;29;20378;-78
2022/01/08 02:40:25;;;;;;;2.08;1.10;;;;;;;16.77;48.39;101079.66;4830062;29;20089;-78
2022/01/08 02:43:01;;;;;;;2.13;0.98;;;;;;;16.78;48.54;101107.34;4844884;29;20045;-78
2022/01/08 02:45:28;;;;;;;2.55;0.90;;;;;;;16.77;48.34;101108.22;4844873;29;20049;-78
2022/01/08 02:47:55;;;;;;;1.90;0.85;;;;;;;16.77;48.58;101096.09;4829703;29;20124;-78
2022/01/08 02:50:21;;;;;;;2.92;1.00;;;;;;;16.75;48.45;101071.84;4861822;29;20124;-79
2022/01/08 02:52:48;;;;;;;1.83;0.90;;;;;;;16.75;48.52;101070.97;4829782;29;20454;-78
2022/01/08 02:55:15;;;;;;;2.00;0.80;;;;;;;16.75;48.52;101063.19;4861184;29;20075;-78
2022/01/08 02:57:40;;;;;;;2.25;0.98;;;;;;;16.74;48.49;101061.44;4845122;29;20485;-78
2022/01/08 03:00:08;;;;;;;1.75;0.80;;;;;;;16.73;48.52;101064.94;4845666;29;20048;-78
2022/01/08 03:02:34;;;;;;;2.65;1.08;;;;;;;16.72;48.55;101051.03;4830949;29;20048;-78
2022/01/08 03:05:00;;;;;;;1.52;0.80;;;;;;;16.73;48.58;101059.72;4845197;29;20396;-78
2022/01/08 03:07:25;;;;;;;1.65;0.80;;;;;;;16.72;48.69;101057.97;4861112;29;20041;-78
2022/01/08 03:09:56;;;;;;;2.75;0.98;;;;;;;16.73;48.36;101062.31;4829507;29;20492;-78
2022/01/08 03:12:27;;;;;;;2.25;0.90;;;;;;;16.72;48.61;101063.19;4830248;29;20042;-78
2022/01/08 03:14:52;;;;;;;2.72;0.95;;;;;;;16.71;48.27;101059.72;4844776;29;20047;-78
2022/01/08 03:17:18;;;;;;;2.38;0.88;;;;;;;16.72;48.50;101057.97;4861347;29;20484;-78
2022/01/08 03:19:43;;;;;;;1.95;0.77;;;;;;;16.71;48.63;101058.88;4844719;29;20477;-78
2022/01/08 03:22:09;;;;;;;2.60;0.93;;;;;;;16.71;48.51;101077.06;4829509;29;20108;-78
2022/01/08 03:24:35;;;;;;;2.38;0.80;;;;;;;16.70;48.28;101068.41;4861162;29;20042;-78
2022/01/08 03:27:00;;;;;;;2.00;0.82;;;;;;;16.70;48.52;101076.19;4828999;29;20060;-78
2022/01/08 03:29:27;;;;;;;2.95;0.85;;;;;;;16.68;48.46;101072.72;4829620;29;20041;-78
2022/01/08 03:31:52;;;;;;;2.13;1.08;;;;;;;16.69;48.49;101079.66;4844549;29;20037;-78
2022/01/08 03:34:18;;;;;;;1.75;0.90;;;;;;;16.68;48.64;101077.94;4844280;29;20048;-78
2022/01/08 03:36:43;;;;;;;1.88;0.88;;;;;;;16.69;48.47;101066.66;4860815;29;20030;-78
2022/01/08 03:39:09;;;;;;;2.47;0.90;;;;;;;16.69;48.42;101073.59;4844633;29;20493;-77
2022/01/08 03:41:35;;;;;;;2.55;0.73;;;;;;;16.67;48.39;101066.66;4844500;29;20094;-78
2022/01/08 03:44:00;;;;;;;2.22;0.77;;;;;;;16.68;48.44;101059.75;4844706;29;20072;-78
2022/01/08 03:46:28;;;;;;;2.00;0.80;;;;;;;16.67;48.71;101066.66;4848471;29;20480;-78
2022/01/08 03:51:30;;;;;;;1.67;0.70;;;;;;;16.67;48.64;101047.59;4864602;29;20040;-78
2022/01/08 03:53:56;;;;;;;2.45;0.95;;;;;;;16.67;48.43;101056.25;4864295;29;20064;-78
2022/01/08 03:56:21;;;;;;;2.95;0.85;;;;;;;16.66;48.52;101053.69;4847998;29;20029;-78
2022/01/08 03:58:46;;;;;;;1.95;0.75;;;;;;;16.65;48.55;101055.38;4864053;29;20042;-78
2022/01/08 04:01:12;;;;;;;2.13;0.80;;;;;;;16.65;48.55;101055.38;4864280;29;20049;-78
2022/01/08 04:03:37;;;;;;;2.85;0.70;;;;;;;16.64;48.49;101051.06;4864195;29;20033;-78
2022/01/08 04:06:02;;;;;;;1.13;0.60;;;;;;;16.64;48.71;101056.28;4832071;29;20105;-78
2022/01/08 04:08:28;;;;;;;2.55;1.10;;;;;;;16.63;48.58;101051.94;4847596;29;20069;-78
2022/01/08 04:10:53;;;;;;;1.02;0.60;;;;;;;16.63;48.60;101062.31;4864065;29;20508;-78
2022/01/08 04:13:24;;;;;;;1.65;0.70;;;;;;;16.63;48.48;101061.47;4847717;29;20053;-78
2022/01/08 04:15:52;;;;;;;1.48;0.80;;;;;;;16.62;48.63;101071.00;4847804;29;20034;-78
2022/01/08 04:18:18;;;;;;;2.30;0.80;;;;;;;16.61;48.52;101069.28;4834071;29;20052;-79
2022/01/08 04:23:17;;;;;;;1.25;0.60;;;;;;;16.61;48.77;101082.28;4865613;29;20067;-78
2022/01/08 04:25:42;;;;;;;3.95;0.65;;;;;;;16.60;48.74;101077.94;4848383;29;20390;-78
2022/01/08 04:28:08;;;;;;;2.05;0.70;;;;;;;16.59;48.56;101084.00;4852531;29;20064;-78
2022/01/08 04:30:33;;;;;;;1.50;0.70;;;;;;;16.58;48.80;101077.06;4853230;29;20060;-79
2022/01/08 04:32:59;;;;;;;3.00;1.00;;;;;;;16.60;48.63;101080.53;4853487;29;20049;-78
2022/01/08 04:35:24;;;;;;;2.35;0.80;;;;;;;16.62;48.84;101083.13;4853154;29;20033;-79
2022/01/08 04:37:49;;;;;;;1.60;0.70;;;;;;;16.61;48.79;101082.28;4851530;29;20037;-78
2022/01/08 04:40:15;;;;;;;1.95;0.88;;;;;;;16.62;48.74;101070.13;4849047;29;20041;-78
2022/01/08 04:42:40;;;;;;;2.97;0.88;;;;;;;16.61;49.07;101069.28;4864403;29;20374;-78
2022/01/08 04:45:06;;;;;;;1.70;0.90;;;;;;;16.61;48.75;101083.97;4868061;29;20133;-78
2022/01/08 04:47:31;;;;;;;2.55;0.80;;;;;;;16.62;48.82;101084.00;4872623;29;20053;-79
2022/01/08 04:49:56;;;;;;;2.42;0.88;;;;;;;16.61;48.78;101091.78;4871508;29;20041;-79
2022/01/08 04:52:22;;;;;;;1.20;0.70;;;;;;;16.62;49.01;101086.59;4833362;29;20120;-78
2022/01/08 04:54:47;;;;;;;1.50;0.80;;;;;;;16.63;48.88;101084.84;4836746;29;20041;-79
2022/01/08 04:57:12;;;;;;;2.83;0.88;;;;;;;16.61;48.79;101079.69;4872000;29;20101;-78
2022/01/08 04:59:38;;;;;;;1.60;0.60;;;;;;;16.62;48.86;101088.31;4866495;29;20101;-79
2022/01/08 05:02:03;;;;;;;1.42;0.68;;;;;;;16.61;49.03;101090.06;4847326;29;20524;-79
2022/01/08 05:04:29;;;;;;;1.83;0.80;;;;;;;16.61;48.91;101083.97;4847465;29;20511;-78
2022/01/08 05:06:54;;;;;;;2.25;0.80;;;;;;;16.61;49.01;101087.47;4846904;29;20040;-78
2022/01/08 05:09:19;;;;;;;2.75;0.70;;;;;;;16.60;48.78;101085.72;4816039;29;20038;-78
2022/01/08 05:11:46;;;;;;;2.17;0.80;;;;;;;16.59;49.03;101081.41;4846256;29;20154;-78
2022/01/08 05:14:12;;;;;;;1.80;0.70;;;;;;;16.59;48.94;101084.00;4847440;29;20041;-78
2022/01/08 05:16:39;;;;;;;2.03;0.80;;;;;;;16.59;48.88;101086.59;4846481;29;20029;-78
2022/01/08 05:19:04;;;;;;;2.25;0.90;;;;;;;16.58;48.91;101076.22;4846477;29;20033;-78
2022/01/08 05:21:33;;;;;;;2.35;0.68;;;;;;;16.59;48.95;101080.53;4864770;29;20048;-79
2022/01/08 05:23:58;;;;;;;1.50;0.68;;;;;;;16.57;49.03;101071.84;4846429;29;20101;-78
2022/01/08 05:26:25;;;;;;;2.45;0.95;;;;;;;16.57;49.13;101077.06;4846234;29;20136;-78
2022/01/08 05:28:55;;;;;;;2.22;0.85;;;;;;;16.58;48.84;101078.81;4831041;29;20041;-78
2022/01/08 05:31:22;;;;;;;3.83;0.77;;;;;;;16.56;49.02;101089.19;4862616;29;20033;-78
2022/01/08 05:33:49;;;;;;;1.58;0.70;;;;;;;16.56;49.04;101089.19;4845822;29;20037;-78
2022/01/08 05:36:15;;;;;;;0.93;0.55;;;;;;;16.55;48.91;101090.06;4845901;29;20033;-74
2022/01/08 05:38:40;;;;;;;1.60;0.70;;;;;;;16.55;48.89;101094.38;4862298;29;20496;-74
2022/01/08 05:41:06;;;;;;;2.70;0.80;;;;;;;16.54;49.05;101098.72;4862593;29;20049;-74
2022/01/08 05:43:32;;;;;;;1.23;0.60;;;;;;;16.55;49.13;101104.78;4846447;29;20550;-74
2022/01/08 05:45:57;;;;;;;3.33;0.90;;;;;;;16.56;48.92;101111.72;4862316;29;20041;-74
2022/01/08 05:48:24;;;;;;;2.53;0.65;;;;;;;16.56;49.19;101109.97;4845582;29;20045;-74
2022/01/08 05:50:49;;;;;;;2.10;0.90;;;;;;;16.55;49.03;101105.66;4862126;29;20101;-74
2022/01/08 05:53:20;;;;;;;1.52;0.77;;;;;;;16.55;48.94;101105.66;4845732;29;20037;-74
2022/01/08 05:55:45;;;;;;;2.40;0.80;;;;;;;16.57;49.06;101105.63;4845445;29;20041;-74
2022/01/08 05:58:11;;;;;;;1.40;0.63;;;;;;;16.57;48.97;101095.25;4845471;29;20109;-74
2022/01/08 06:00:36;;;;;;;3.67;0.90;;;;;;;16.57;48.86;101100.44;4861914;29;20456;-74
2022/01/08 06:03:02;;;;;;;2.17;0.70;;;;;;;16.56;49.25;101094.38;4861833;29;20036;-74
2022/01/08 06:05:27;;;;;;;1.58;0.70;;;;;;;16.57;49.29;101092.66;4861749;29;20133;-74
2022/01/08 06:07:52;;;;;;;1.83;0.80;;;;;;;16.58;49.17;101099.59;4861256;29;20080;-74
2022/01/08 06:10:19;;;;;;;1.25;0.55;;;;;;;16.58;48.92;101092.66;4861796;29;20049;-74
2022/01/08 06:12:45;;;;;;;1.92;0.80;;;;;;;16.58;49.15;101097.00;4861901;29;20516;-74
2022/01/08 06:15:10;;;;;;;1.20;0.70;;;;;;;16.58;49.12;101090.06;4830355;29;20073;-74
2022/01/08 06:17:36;;;;;;;1.17;0.70;;;;;;;16.57;49.21;101084.84;4845059;29;20080;-74
2022/01/08 06:20:01;;;;;;;1.30;0.70;;;;;;;16.58;49.19;101084.00;4845321;29;20045;-74
2022/01/08 06:22:27;;;;;;;1.90;0.80;;;;;;;16.59;49.31;101078.81;4830117;29;20034;-74
2022/01/08 06:24:52;;;;;;;2.45;0.93;;;;;;;16.58;49.11;101079.66;4844761;29;20404;-74
2022/01/08 06:27:17;;;;;;;2.65;0.70;;;;;;;16.60;49.22;101074.47;4844739;29;20058;-74
2022/01/08 06:29:43;;;;;;;1.73;0.70;;;;;;;16.58;49.18;101064.06;4861394;29;20042;-74
2022/01/08 06:32:08;;;;;;;1.73;0.70;;;;;;;16.59;49.13;101068.41;4844862;29;20045;-74
2022/01/08 06:34:33;;;;;;;2.33;0.80;;;;;;;16.58;49.08;101066.66;4844954;29;20121;-74
2022/01/08 06:36:59;;;;;;;1.30;0.73;;;;;;;16.59;49.20;101068.41;4844962;29;20053;-74
2022/01/08 06:39:24;;;;;;;2.20;0.80;;;;;;;16.60;49.31;101058.88;4844888;29;20046;-74
2022/01/08 06:41:49;;;;;;;1.98;0.60;;;;;;;16.60;49.27;101064.06;4861462;29;20033;-74
2022/01/08 06:44:15;;;;;;;1.23;0.60;;;;;;;16.60;49.04;101069.28;4829851;29;20068;-74
2022/01/08 06:46:43;;;;;;;1.58;0.60;;;;;;;16.58;49.29;101061.47;4845094;29;20069;-74
2022/01/08 06:49:09;;;;;;;1.25;0.77;;;;;;;16.60;49.27;101056.28;4815084;29;20053;-74
2022/01/08 06:51:34;;;;;;;1.50;0.73;;;;;;;16.60;49.31;101066.69;4844799;29;20029;-74
2022/01/08 06:54:00;;;;;;;1.65;0.75;;;;;;;16.60;49.24;101061.47;4844553;29;20045;-74
2022/01/08 06:56:25;;;;;;;1.67;0.70;;;;;;;16.60;49.04;101064.06;4844695;29;20488;-74
2022/01/08 06:58:50;;;;;;;3.20;0.80;;;;;;;16.60;49.16;101056.28;4844851;29;20044;-74
2022/01/08 07:01:16;;;;;;;1.70;0.60;;;;;;;16.60;49.18;101059.75;4861276;29;20116;-74
2022/01/08 07:03:41;;;;;;;1.33;0.63;;;;;;;16.60;49.39;101051.94;4844638;29;20208;-74
2022/01/08 07:06:07;;;;;;;1.48;0.60;;;;;;;16.61;49.33;101047.59;4844571;29;20472;-74
2022/01/08 07:08:32;;;;;;;1.23;0.60;;;;;;;16.61;49.22;101045.00;4844617;29;20060;-74
2022/01/08 07:10:58;;;;;;;1.50;0.80;;;;;;;16.60;49.09;101045.91;4844899;29;20109;-74
2022/01/08 07:13:23;;;;;;;1.27;0.65;;;;;;;16.60;49.42;101036.34;4845210;29;20037;-78
2022/01/08 07:15:48;;;;;;;1.02;0.55;;;;;;;16.61;49.16;101040.69;4845338;29;20038;-76
2022/01/08 07:18:14;;;;;;;1.42;0.70;;;;;;;16.61;49.18;101043.31;4845287;29;20074;-77
2022/01/08 07:20:39;;;;;;;2.15;0.70;;;;;;;16.61;49.24;101045.91;4848787;29;20045;-76
2022/01/08 07:23:05;;;;;;;3.38;0.65;;;;;;;16.62;49.24;101032.03;4848750;29;20049;-77
2022/01/08 07:25:30;;;;;;;1.95;0.70;;;;;;;16.63;49.25;101028.53;4848836;29;20136;-77
2022/01/08 07:27:56;;;;;;;3.20;0.60;;;;;;;16.64;49.55;101038.09;4833317;29;20457;-76
2022/01/08 07:30:21;;;;;;;5.72;0.85;;;;;;;16.64;49.25;101032.88;4848280;29;20089;-76
2022/01/08 07:32:49;;;;;;;2.30;0.65;;;;;;;16.66;49.27;101038.09;4833116;29;20497;-76
2022/01/08 07:35:15;;;;;;;2.10;0.65;;;;;;;16.65;49.50;101034.59;4832676;29;20465;-76
2022/01/08 07:37:41;;;;;;;2.58;0.88;;;;;;;16.66;49.37;101033.75;4832617;29;20041;-76
2022/01/08 07:40:08;;;;;;;1.65;0.60;;;;;;;16.68;49.40;101025.97;4833105;29;20049;-76
2022/01/08 07:42:34;;;;;;;1.75;0.60;;;;;;;16.69;49.34;101029.41;4864460;29;20041;-76
2022/01/08 07:44:59;;;;;;;1.35;0.50;;;;;;;16.69;49.26;101024.22;4847686;29;20090;-76
2022/01/08 07:47:24;;;;;;;1.30;0.60;;;;;;;16.70;49.30;101019.03;4847834;29;20106;-76
2022/01/08 07:49:50;;;;;;;1.30;0.70;;;;;;;16.70;49.33;101018.13;4832504;29;20090;-76
2022/01/08 07:52:16;;;;;;;2.53;0.70;;;;;;;16.70;49.26;101020.72;4848438;29;20102;-76
2022/01/08 07:54:42;;;;;;;1.25;0.63;;;;;;;16.71;49.11;101023.34;4832646;29;20057;-76
2022/01/08 07:57:07;;;;;;;1.27;0.60;;;;;;;16.72;49.26;101025.06;4832221;29;20034;-76
2022/01/08 07:59:32;;;;;;;0.75;0.40;;;;;;;16.73;49.17;101018.16;4847652;29;20033;-76
2022/01/08 08:01:58;;;;;;;1.98;0.70;;;;;;;16.72;49.22;101017.25;4832101;29;20045;-76
2022/01/08 08:04:23;;;;;;;2.03;0.70;;;;;;;16.72;49.33;101017.25;4847814;29;20042;-76
2022/01/08 08:06:49;;;;;;;1.80;0.60;;;;;;;16.72;49.40;101009.47;4847735;29;20492;-77
2022/01/08 08:09:15;;;;;;;1.55;0.80;;;;;;;16.73;49.32;101006.00;4847922;29;20136;-76
2022/01/08 08:11:41;;;;;;;1.05;0.50;;;;;;;16.73;49.30;101000.81;4847862;29;20053;-76
2022/01/08 08:14:06;;;;;;;1.60;0.60;;;;;;;16.74;49.45;100999.06;4864152;29;20037;-76
2022/01/08 08:16:32;;;;;;;2.40;0.73;;;;;;;16.73;49.31;101000.81;4864264;29;20030;-76
2022/01/08 08:18:57;;;;;;;1.48;0.60;;;;;;;16.74;49.21;100991.28;4832038;29;20430;-75
2022/01/08 08:21:23;;;;;;;1.65;0.65;;;;;;;16.73;49.39;100987.81;4832034;29;20102;-75
2022/01/08 08:23:49;;;;;;;1.15;0.70;;;;;;;16.75;49.16;100982.63;4847504;29;20106;-76
2022/01/08 08:26:14;;;;;;;1.13;0.70;;;;;;;16.74;49.32;100976.53;4846937;29;20061;-76
2022/01/08 08:28:39;;;;;;;1.92;0.70;;;;;;;16.75;49.36;100974.84;4816688;29;20176;-76
2022/01/08 08:31:05;;;;;;;1.13;0.60;;;;;;;16.75;49.29;100977.44;4863163;29;20041;-76
2022/01/08 08:33:30;;;;;;;1.33;0.60;;;;;;;16.74;48.91;100979.13;4856683;29;20037;-82
2022/01/08 08:35:56;;;;;;;1.27;0.80;;;;;;;16.73;49.13;100974.81;4884887;29;20097;-81
2022/01/08 08:38:21;;;;;;;2.47;1.02;;;;;;;16.73;49.23;100972.22;4870731;29;20017;-82
2022/01/08 08:40:46;;;;;;;3.10;1.30;;;;;;;16.75;49.24;100972.22;4845671;29;20102;-81
2022/01/08 08:48:31;;;;;;;11.98;3.05;;;;;;;17.02;48.87;100960.88;5341012;23;20042;-81
2022/01/08 09:06:31;;;;;;;9.40;3.08;;;;;;;17.11;48.81;100941.75;5669434;23;20054;-82
2022/01/08 09:19:18;;;;;;;5.57;2.28;;;;;;;17.13;49.00;100893.19;5746319;23;20074;-82
2022/01/08 09:21:45;;;;;;;7.50;2.67;;;;;;;17.16;48.94;100894.06;4949183;23;20061;-85
2022/01/08 09:24:12;;;;;;;6.22;2.30;;;;;;;17.15;48.93;100883.66;5021448;24;20057;-79
2022/01/08 09:26:38;;;;;;;6.65;2.40;;;;;;;17.17;48.80;100879.31;4813431;29;20050;-79
2022/01/08 09:29:03;;;;;;;5.40;2.20;;;;;;;17.19;48.89;100880.16;4845017;29;20085;-80
2022/01/08 09:31:29;;;;;;;8.48;2.40;;;;;;;17.19;48.65;100874.97;4827811;29;20080;-79
2022/01/08 09:33:54;;;;;;;7.03;2.40;;;;;;;17.20;48.86;100869.75;4812886;29;20041;-81
2022/01/08 09:36:20;;;;;;;6.43;2.17;;;;;;;17.21;48.87;100873.22;4828869;29;20056;-79
2022/01/08 09:38:45;;;;;;;6.88;2.60;;;;;;;17.22;48.99;100869.72;4828461;29;20042;-79
2022/01/08 09:41:11;;;;;;;5.38;2.20;;;;;;;17.21;48.80;100862.81;4844143;29;20454;-78
2022/01/08 09:43:37;;;;;;;11.25;2.20;;;;;;;17.21;48.96;100857.63;4828008;29;20078;-79
2022/01/08 09:46:03;;;;;;;4.35;1.92;;;;;;;17.21;49.07;100855.00;4827662;29;20136;-80
2022/01/08 09:48:28;;;;;;;7.30;2.53;;;;;;;17.21;48.91;100845.47;4827621;29;20120;-79
2022/01/08 09:50:54;;;;;;;5.68;2.17;;;;;;;17.24;48.73;100844.56;4812300;29;20520;-80
2022/01/08 09:53:21;;;;;;;5.50;2.03;;;;;;;17.26;48.81;100840.22;4797266;29;20052;-79
2022/01/08 09:55:47;;;;;;;7.40;1.90;;;;;;;17.27;48.84;100832.41;4827570;29;20472;-79
2022/01/08 09:58:13;;;;;;;5.32;1.98;;;;;;;17.26;48.89;100822.88;4812345;29;20105;-79
2022/01/08 10:00:39;;;;;;;5.22;2.00;;;;;;;17.24;48.96;100819.41;4828161;29;20050;-79
2022/01/08 10:03:23;;;;;;;5.97;1.90;;;;;;;17.21;49.05;100809.06;4844081;29;20106;-79
2022/01/08 10:05:51;;;;;;;4.90;2.00;;;;;;;17.20;48.92;100803.84;4827598;29;20105;-80
2022/01/08 10:18:40;;;;;;;5.88;1.98;;;;;;;17.25;49.12;100774.34;5067416;23;20067;-78
2022/01/08 10:21:19;;;;;;;4.68;2.03;;;;;;;17.26;48.95;100765.66;4830490;29;20053;-79
2022/01/08 10:26:23;;;;;;;8.18;1.80;;;;;;;17.04;52.75;100759.78;4834104;29;20058;-79
2022/01/08 10:28:56;;;;;;;10.50;2.25;;;;;;;16.84;53.51;100761.69;4815273;29;20378;-80
2022/01/08 10:31:26;;;;;;;10.88;1.67;;;;;;;16.65;53.73;100759.19;4826679;29;20087;-79
2022/01/08 10:33:55;;;;;;;6.85;2.00;;;;;;;16.56;55.49;100754.06;4825609;29;20091;-78
2022/01/08 10:37:01;;;;;;;7.05;2.00;;;;;;;16.58;54.76;100751.47;4809020;29;20031;-79
2022/01/08 10:39:38;;;;;;;4.95;1.70;;;;;;;16.53;54.26;100740.25;4824735;29;20091;-78
2022/01/08 10:42:16;;;;;;;5.03;1.70;;;;;;;16.47;53.72;100735.94;4808785;29;20125;-78
2022/01/08 10:44:44;;;;;;;3.67;1.48;;;;;;;16.46;54.07;100729.00;4809056;29;20038;-78
2022/01/08 10:47:16;;;;;;;4.45;1.77;;;;;;;16.48;53.95;100726.41;4808786;29;20524;-79
2022/01/08 10:49:47;;;;;;;4.18;1.55;;;;;;;16.50;54.43;100714.28;4808794;29;20504;-78
2022/01/08 10:52:15;;;;;;;4.78;1.80;;;;;;;16.51;54.37;100714.28;4824904;29;20041;-77
2022/01/08 10:54:46;;;;;;;4.82;1.70;;;;;;;16.52;55.48;100704.72;4829778;29;20057;-78
2022/01/08 10:57:14;;;;;;;7.85;2.08;;;;;;;16.51;54.58;100695.22;4814480;29;20045;-78
2022/01/08 10:59:40;;;;;;;8.45;1.90;;;;;;;16.49;54.59;100691.78;4815010;29;20531;-78
2022/01/08 11:02:11;;;;;;;6.05;1.92;;;;;;;16.49;54.27;100694.38;4799522;29;20050;-77
2022/01/08 11:04:40;;;;;;;7.15;1.92;;;;;;;16.49;56.06;100684.00;4814828;29;20062;-78
2022/01/08 11:07:21;;;;;;;6.72;1.90;;;;;;;16.49;56.39;100671.84;4814398;29;20390;-77
2022/01/08 11:09:48;;;;;;;3.75;1.88;;;;;;;16.47;54.96;100664.94;4831104;29;20497;-78
2022/01/08 11:12:18;;;;;;;6.15;1.73;;;;;;;16.54;55.91;100658.84;4814627;29;20038;-78
2022/01/08 11:17:24;;;;;;;4.53;2.03;;;;;;;16.53;58.86;100638.94;4830541;29;20098;-78
2022/01/08 11:19:52;;;;;;;7.03;1.60;;;;;;;16.59;57.58;100631.94;4831030;29;20099;-78
2022/01/08 11:22:22;;;;;;;5.90;1.80;;;;;;;16.47;58.01;100613.88;4815331;29;20042;-78
2022/01/08 11:24:53;;;;;;;7.47;2.20;;;;;;;16.35;57.90;100607.03;4814317;29;20480;-79
2022/01/08 11:27:22;;;;;;;4.30;2.00;;;;;;;16.29;57.39;100594.09;4814570;29;20030;-79
2022/01/08 11:30:04;;;;;;;6.63;1.85;;;;;;;16.23;58.61;100591.56;4814416;29;20397;-79
2022/01/08 11:32:29;;;;;;;6.43;2.22;;;;;;;16.20;59.67;100578.56;4814553;29;20141;-78
2022/01/08 11:34:55;;;;;;;5.57;1.95;;;;;;;16.18;57.68;100570.81;4799577;29;20070;-79
2022/01/08 11:37:27;;;;;;;6.35;2.10;;;;;;;16.15;58.62;100547.47;4814196;29;20054;-79
2022/01/08 11:39:53;;;;;;;4.93;1.88;;;;;;;16.15;57.76;100557.00;4814648;29;20128;-79
2022/01/08 11:42:22;;;;;;;4.30;2.00;;;;;;;16.16;59.91;100546.59;4814241;29;20118;-79
2022/01/08 11:44:50;;;;;;;5.40;1.83;;;;;;;16.13;60.03;100533.63;4784966;29;20070;-79
2022/01/08 11:47:18;;;;;;;5.40;1.67;;;;;;;16.12;59.91;100534.53;4815647;29;20042;-80
2022/01/08 11:49:44;;;;;;;5.15;1.73;;;;;;;16.12;59.15;100518.09;4820203;29;20038;-80
2022/01/08 11:52:19;;;;;;;4.32;1.50;;;;;;;16.13;58.22;100505.06;4821079;29;20138;-79
2022/01/08 11:54:47;;;;;;;6.60;1.77;;;;;;;16.13;57.10;100493.84;4821067;29;20134;-80
2022/01/08 11:57:18;;;;;;;3.20;1.70;;;;;;;16.14;58.21;100491.25;4838117;29;20027;-79
2022/01/08 11:59:44;;;;;;;4.65;1.52;;;;;;;16.15;57.81;100477.38;4817828;29;20034;-79
2022/01/08 12:02:12;;;;;;;3.08;1.60;;;;;;;16.17;58.71;100457.44;4817210;29;20115;-79
2022/01/08 12:04:39;;;;;;;5.22;1.73;;;;;;;16.19;57.08;100447.06;4830981;29;20540;-79
2022/01/08 12:07:31;;;;;;;4.28;1.73;;;;;;;16.20;57.69;100441.88;4797643;29;20490;-79
2022/01/08 12:10:15;;;;;;;3.85;1.60;;;;;;;16.24;59.76;100425.38;4813022;29;20069;-80
2022/01/08 12:13:02;;;;;;;2.20;1.30;;;;;;;16.20;57.53;100417.63;4817140;29;20038;-83
2022/01/08 12:15:39;;;;;;;4.43;1.70;;;;;;;16.22;57.42;100413.25;4815831;29;20433;-82
2022/01/08 12:18:05;;;;;;;4.88;1.50;;;;;;;16.27;58.08;100397.66;4832456;29;20038;-82
2022/01/08 12:20:49;;;;;;;5.57;1.70;;;;;;;16.25;57.74;100395.06;4816839;29;20038;-82
2022/01/08 12:23:38;;;;;;;3.58;1.55;;;;;;;16.23;56.53;100373.47;4837030;29;20042;-83
2022/01/08 12:26:35;;;;;;;2.83;1.42;;;;;;;16.25;57.29;100356.97;4822083;29;20046;-81
2022/01/08 12:29:00;;;;;;;6.07;1.67;;;;;;;16.24;56.74;100347.50;4824713;29;20493;-84
2022/01/08 12:31:42;;;;;;;3.85;1.60;;;;;;;16.25;59.26;100340.56;4827123;29;20037;-83
2022/01/08 12:38:09;;;;;;;3.45;1.40;;;;;;;16.28;58.86;100322.34;4849162;29;20055;-85